Khalid Al Naqbi

Chefscout - Al Wahda
5 Sep 2027
Sonntag
Verarbeitung

Persönlichkeit

Anpassungsfähigkeit (16) Ehrgeiz (8) Kontroverse (2) Loyalität (6) Druck (18) Professionalität (8) Fairness (2) Temperament (12)

Profil

Trainerstil Demokratisch
Lizenz Kontinentale A
Entschlossenheit 4
Menschenführung 13
Motivation 6
Disziplin 4
Arbeitszufriedenheit
100%
Ermüdung
0%
Rolle Chefscout
Gehalt 69.7K p/W
Vertrag 14.03.2029

Leistung

Verhalten Gut
Trainingseffektivität
35%
Spielerentwicklung
60%
Verletzungsprävention
45%
Taktische Umsetzung
40%

Letzte Ereignisse

Spieler begutachtet jetzt
Nahm an einer Scouting-Besprechung teil jetzt
Empfahl ein Transferziel jetzt
Spieler begutachtet 7T her
Nahm an einer Scouting-Besprechung teil 7T her
Empfahl ein Transferziel 7T her
Empfahl ein Transferziel 7T her
Nahm an einer Scouting-Besprechung teil 7T her

Aktuell beobachtet

97
Spieler Verein Status Fähigkeit Vertrauen Beobachtet Zuletzt beobachtet Letzte Stimme
Godwin Oham Warri Wolves Aktiv 82 / 80 40% 2 30.08.2027 -
Nahuel Leivas Montevideo City Torque Aktiv 97 / 114 40% 3 30.08.2027 -
Victor Ehibe Barau Aktiv 94 / 92 40% 1 30.08.2027 -
Jamie Wähling Marsaxlokk Aktiv 83 / 94 40% 2 23.08.2027 -
Mahmoud Yaqoob Al Ain Aktiv 128 / 119 40% 1 23.08.2027 -
Gift Udoh Ikorodu City Aktiv 86 / 103 40% 1 23.08.2027 -
David Damboama El-Kanemi Warriors Aktiv 87 / 86 40% 2 22.08.2027 -
Yusuf Akçiçek Al-Hilal Aktiv 130 / 133 40% 2 22.08.2027 -
Kaick FC Dallas Aktiv 101 / 113 40% 2 21.08.2027 -
Ibrahim Sabiu Bendel Insurance Aktiv 88 / 82 40% 2 21.08.2027 -
Aytor Herrera Llaneros Aktiv 72 / 76 40% 1 21.08.2027 -
Chibueze Oputa Rangers International Aktiv 85 / 89 40% 3 20.08.2027 -
Edwin Asamoah Berekum Chelsea Aktiv 93 / 88 40% 2 20.08.2027 -
Julián Bazán New York Red Bulls Aktiv 117 / 137 40% 6 18.08.2027 -
Alin Kumer Čelik Genoa Aktiv 92 / 86 40% 2 16.08.2027 -
Jeffrey Annan Hasaacas Aktiv 88 / 85 40% 2 16.08.2027 -
Martín Jiménez Audax Italiano Aktiv 101 / 124 40% 1 12.08.2027 -
Augusto Bando Ascoli Aktiv 116 / 108 40% 3 11.08.2027 -
Mbekezeli Mbokazi Chicago Fire Aktiv 123 / 137 40% 4 09.08.2027 -
Martim Cunha Porto Aktiv 97 / 123 40% 2 09.08.2027 -
Farhah Al-Shamrani Al-Ittihad Aktiv 93 / 92 40% 1 06.08.2027 -
Dennis Konney US Bougouba Aktiv 83 / 86 40% 5 05.08.2027 -
Alexis Fretes Libertad Aktiv 98 / 112 40% 1 05.08.2027 -
Olaniyi Saheed Kwara United Aktiv 98 / 106 40% 3 04.08.2027 -
Oussama Benattia ASO Chlef Aktiv 85 / 94 40% 3 04.08.2027 -
Miguel Figueiredo Benfica Aktiv 124 / 113 40% 1 04.08.2027 -
Louis Page West Ham United Aktiv 119 / 135 40% 2 02.08.2027 -
Jayden Spier Willem II Aktiv 110 / 98 40% 2 02.08.2027 -
Kwadwo Atiemo Wa All Stars Aktiv 79 / 104 40% 1 02.08.2027 -
Izan Merino Málaga Aktiv 136 / 122 40% 2 01.08.2027 -
Amir Mohammad Razzaghinia Esteghlal Aktiv 109 / 117 40% 2 29.07.2027 -
Lucan Louw US Bougouni Aktiv 81 / 98 40% 2 24.07.2027 -
Vasyl Bundash Metalurh Zaporizhzhia Aktiv 94 / 94 40% 1 22.07.2027 -
Mattia Mannini Juve Stabia Aktiv 112 / 104 40% 2 19.07.2027 -
Oussama Fatmi AS Police Aktiv 84 / 94 40% 2 19.07.2027 -
Percy Zungu Platinum Stars Aktiv 73 / 95 40% 1 19.07.2027 -
Omar Kahraba Masr El Makasa Aktiv 83 / 96 40% 1 13.07.2027 -
Lucas Jetten Cambuur Aktiv 125 / 106 40% 2 12.07.2027 -
Ravil Tagir Al Jazira Aktiv 112 / 128 72% 1 12.07.2027 Befürworten
Daniel Vernattus Metalist Aktiv 89 / 105 40% 2 06.07.2027 -
Maeson King Portsmouth Aktiv 111 / 103 40% 1 06.07.2027 -
Mauricio Amaro Atlanta United FC Aktiv 128 / 124 40% 1 06.07.2027 -
Rafik el Arguioui Utrecht Aktiv 101 / 118 40% 1 04.07.2027 -
Denys Smetana Metalurh Zaporizhzhia Aktiv 92 / 101 40% 1 03.07.2027 -
Joseph Jones Kryvbas Aktiv 96 / 97 40% 2 02.07.2027 -
Abubacarr Sedi Kinteh Al-Khaleej Aktiv 120 / 138 40% 2 02.07.2027 -
Moncef Zekri Sporting CP Aktiv 101 / 95 40% 2 29.06.2027 -
Axel Tape TSG Hoffenheim Aktiv 137 / 121 40% 2 29.06.2027 -
Giacomo Marconi Dolomiti Bellunesi Aktiv 79 / 75 40% 1 25.06.2027 -
George Ilenikhena Al-Ittihad Aktiv 118 / 138 40% 1 24.06.2027 -
Renzo Machado Liverpool Montevideo Aktiv 118 / 131 40% 1 24.06.2027 -
Ignacio Cellerino Vélez Aktiv 97 / 109 40% 1 24.06.2027 -
Luke Baartman Bidvest Wits Aktiv 112 / 127 40% 2 21.06.2027 -
Ichem Ferrah Pisa Aktiv 104 / 108 40% 1 21.06.2027 -
Exequiel Mereles Nacional Aktiv 114 / 122 40% 1 21.06.2027 -
Jack Shorrock Port Vale Aktiv 96 / 109 40% 1 20.06.2027 -
Cheveyo Tsawa Club Brugge Aktiv 124 / 144 40% 1 20.06.2027 -
Raffaele Sibilio Novara Aktiv 81 / 79 40% 1 18.06.2027 -
Tommaso Ghirardello Gubbio Aktiv 105 / 87 40% 1 18.06.2027 -
Sonny Finch Grimsby Town Aktiv 88 / 77 40% 4 17.06.2027 -
Kasra Taheri Foolad Aktiv 106 / 109 40% 1 17.06.2027 -
Luka Andrade Montevideo City Torque Aktiv 90 / 102 40% 1 17.06.2027 -
Otto Stange Hamburger SV Aktiv 121 / 134 40% 2 16.06.2027 -
Gabriel Melo Probiy Aktiv 81 / 93 40% 2 16.06.2027 -
Luca Maiorano Pro Patria Aktiv 93 / 114 40% 1 16.06.2027 -
Reuben Reid Charlton Athletic Aktiv 84 / 120 40% 2 15.06.2027 -
Darlvin Yeboah Bechem United Aktiv 89 / 89 40% 2 15.06.2027 -
Nicolás Azambuja Nottingham Forest Aktiv 108 / 122 40% 2 15.06.2027 -
Ricardo Mathias Al-Ahli Aktiv 118 / 128 40% 3 14.06.2027 -
Dilan Neves Benfica Aktiv 84 / 81 40% 1 14.06.2027 -
Joel McGregor Swindon Town Aktiv 85 / 106 40% 1 14.06.2027 -
Mateus Mide Porto Aktiv 106 / 103 40% 5 12.06.2027 -
Risilanu Ismail El-Kanemi Warriors Aktiv 83 / 97 40% 3 12.06.2027 -
Kwadwo Ayew BA All Stars Aktiv 79 / 76 40% 1 10.06.2027 -
Moslem Anatouf MC Alger Aktiv 85 / 96 40% 2 09.06.2027 -
Lorenzo De Leo Renate Aktiv 107 / 112 40% 1 09.06.2027 -
Ezekiel Kwame Alladoh Philadelphia Union Aktiv 126 / 107 40% 1 09.06.2027 -
Luca Bărbulescu Ohod Aktiv 88 / 83 40% 1 03.06.2027 -
Salem Hussain Al Shabab Verloren 130 / 130 67% 1 01.06.2027 -
Ahmed Omar Al Ahli Verloren 110 / 110 67% 1 01.06.2027 -
Hassan Beja AFC Leopards Aktiv 95 / 94 40% 1 01.06.2027 -
Alex Pullchz Ermis Aktiv 71 / 101 40% 2 26.01.2027 Mehr Infos nötig
Thomas Kudus Hasaacas Aktiv 74 / 75 40% 1 24.01.2027 -
Waleed Al-Hassan Al-Mojzel Aktiv 83 / 80 40% 1 19.01.2027 -
Salvador Martínez NK Krsko Aktiv 81 / 81 40% 3 17.01.2027 -
Ben Ahmed Kohili Paradou Aktiv 95 / 100 40% 2 16.01.2027 -
Themba Tau Ajax Cape Town Aktiv 107 / 112 40% 2 16.01.2027 -
Siebe Van Keymolen Zulte Waregem Aktiv 88 / 114 40% 1 14.01.2027 -
Pedro Ataíde Omonoia Aktiv 85 / 99 40% 2 13.01.2027 -
Naledi Hlongwane MC El Bayadh Aktiv 89 / 95 40% 2 12.01.2027 -
Dramane Kamagaté USM Alger Aktiv 101 / 115 40% 1 12.01.2027 -
Sultan Nader Al Shaab Aktiv 92 / 116 40% 1 09.01.2027 -
Sergey Gribov Dinamo Bryansk Aktiv 73 / 97 40% 1 09.01.2027 -
Baba N'Diaye Chelyabinsk Aktiv 76 / 78 40% 1 07.01.2027 -
Marko Brkić NK Krka Aktiv 97 / 111 40% 1 07.01.2027 -
Albert Owusu WAFA Aktiv 83 / 88 40% 1 02.01.2027 -
Hassan Juma Al Shaab Aktiv 83 / 82 72% 1 31.08.2026 Befürworten